createdAt,value
2023-08-19T00:00:04.901Z,233.22
2023-08-19T00:01:04.960Z,234.18
2023-08-19T00:02:04.992Z,238.50
2023-08-19T00:03:05.053Z,239.60
2023-08-19T00:04:05.007Z,241.14
2023-08-19T00:05:05.042Z,244.48
2023-08-19T00:06:05.085Z,247.69
2023-08-19T00:07:05.092Z,248.33
2023-08-19T00:08:05.120Z,246.90
2023-08-19T00:09:05.151Z,247.09
2023-08-19T00:10:05.170Z,249.12
2023-08-19T00:11:05.199Z,249.97
2023-08-19T00:12:05.204Z,250.09
2023-08-19T00:13:05.262Z,249.81
2023-08-19T00:14:05.299Z,249.28
2023-08-19T00:15:05.339Z,253.48
2023-08-19T00:16:05.559Z,259.20
2023-08-19T00:17:05.444Z,261.25
2023-08-19T00:18:05.499Z,260.57
2023-08-19T00:19:05.529Z,258.80
2023-08-19T00:20:05.545Z,256.03
2023-08-19T00:21:05.584Z,252.80
2023-08-19T00:22:05.612Z,248.52
2023-08-19T00:23:05.620Z,246.02
2023-08-19T00:24:05.657Z,242.01
2023-08-19T00:25:05.702Z,239.20
2023-08-19T00:26:05.766Z,235.42
2023-08-19T00:27:05.792Z,229.95
2023-08-19T00:28:05.831Z,225.09
2023-08-19T00:29:05.872Z,223.38
2023-08-19T00:30:05.912Z,221.45
2023-08-19T00:31:06.045Z,219.84
2023-08-19T00:32:06.021Z,218.37
2023-08-19T00:33:06.088Z,216.63
2023-08-19T00:34:06.144Z,216.26
2023-08-19T00:35:06.167Z,213.11
2023-08-19T00:36:06.205Z,212.19
2023-08-19T00:37:06.235Z,209.41
2023-08-19T00:38:06.290Z,209.22
2023-08-19T00:39:06.360Z,206.87
2023-08-19T00:40:06.424Z,202.86
2023-08-19T00:41:06.417Z,200.59
2023-08-19T00:42:06.470Z,198.75
2023-08-19T00:43:06.515Z,197.35
2023-08-19T00:44:06.577Z,197.09
2023-08-19T00:45:06.605Z,196.79
2023-08-19T00:46:06.688Z,195.94
2023-08-19T00:47:06.718Z,199.08
2023-08-19T00:48:06.804Z,202.30
2023-08-19T00:49:06.796Z,203.61
2023-08-19T00:50:06.830Z,206.11
2023-08-19T00:51:06.978Z,208.12
2023-08-19T00:52:06.931Z,209.11
2023-08-19T00:53:06.972Z,210.39
2023-08-19T00:54:07.012Z,217.36
2023-08-19T00:55:07.080Z,221.24
2023-08-19T00:56:07.117Z,223.96
2023-08-19T00:57:07.189Z,224.43
2023-08-19T00:58:07.245Z,219.91
2023-08-19T00:59:07.262Z,220.03
2023-08-19T01:00:07.345Z,219.45
2023-08-19T01:01:07.366Z,224.66
2023-08-19T01:02:07.418Z,229.34
2023-08-19T01:03:07.585Z,234.77
2023-08-19T01:04:07.618Z,240.18
2023-08-19T01:05:07.537Z,244.91
2023-08-19T01:06:07.607Z,249.38
2023-08-19T01:07:07.603Z,250.00
2023-08-19T01:08:07.667Z,250.01
2023-08-19T01:09:07.697Z,249.98
2023-08-19T01:10:07.748Z,247.75
2023-08-19T01:11:07.817Z,244.90
2023-08-19T01:12:07.857Z,242.14
2023-08-19T01:13:07.916Z,239.85
2023-08-19T01:14:07.985Z,237.63
2023-08-19T01:15:08.025Z,233.21
2023-08-19T01:16:08.130Z,227.57
2023-08-19T01:17:08.102Z,221.86
2023-08-19T01:18:08.236Z,218.25
2023-08-19T01:19:08.207Z,218.19
2023-08-19T01:20:08.270Z,223.36
2023-08-19T01:21:08.337Z,226.29
2023-08-19T01:22:08.369Z,227.26
2023-08-19T01:23:08.399Z,228.84
2023-08-19T01:24:08.457Z,230.54
2023-08-19T01:25:08.413Z,233.41
2023-08-19T01:26:08.453Z,235.08
2023-08-19T01:27:08.519Z,236.00
2023-08-19T01:28:08.561Z,236.26
2023-08-19T01:29:08.627Z,232.20
2023-08-19T01:30:08.653Z,228.84
2023-08-19T01:31:08.666Z,226.29
2023-08-19T01:32:08.717Z,226.31
2023-08-19T01:33:08.796Z,228.15
2023-08-19T01:34:08.774Z,232.19
2023-08-19T01:35:08.818Z,235.21
2023-08-19T01:36:08.837Z,236.74
2023-08-19T01:37:08.848Z,234.29
2023-08-19T01:38:08.906Z,232.21
2023-08-19T01:39:08.954Z,228.23
2023-08-19T01:40:08.953Z,226.60
2023-08-19T01:41:08.979Z,230.72
2023-08-19T01:42:08.982Z,232.75
2023-08-19T01:43:08.990Z,238.26
2023-08-19T01:44:09.053Z,242.20
2023-08-19T01:45:09.094Z,245.57
2023-08-19T01:46:09.212Z,246.61
2023-08-19T01:47:09.217Z,247.17
2023-08-19T01:48:09.259Z,248.65
2023-08-19T01:49:09.220Z,250.00
2023-08-19T01:50:09.256Z,250.00
2023-08-19T01:51:09.238Z,249.70
2023-08-19T01:52:09.297Z,250.00
2023-08-19T01:53:09.287Z,249.87
2023-08-19T01:54:09.340Z,249.99
2023-08-19T01:55:09.354Z,249.79
2023-08-19T01:56:09.356Z,249.24
2023-08-19T01:57:09.408Z,249.47
2023-08-19T01:58:09.412Z,249.88
2023-08-19T01:59:09.433Z,250.00
2023-08-19T02:00:09.454Z,250.00
2023-08-19T02:01:09.505Z,249.58
2023-08-19T02:02:09.511Z,249.83
2023-08-19T02:03:09.561Z,248.60
2023-08-19T02:04:09.530Z,246.46
2023-08-19T02:05:09.599Z,245.24
2023-08-19T02:06:09.561Z,245.53
2023-08-19T02:07:09.559Z,246.51
2023-08-19T02:08:09.597Z,247.11
2023-08-19T02:09:09.616Z,247.59
2023-08-19T02:10:09.627Z,247.10
2023-08-19T02:11:09.668Z,245.77
2023-08-19T02:12:09.689Z,244.48
2023-08-19T02:13:09.769Z,243.46
2023-08-19T02:14:09.793Z,243.59
2023-08-19T02:15:09.844Z,246.57
2023-08-19T02:16:09.924Z,248.08
2023-08-19T02:17:09.880Z,245.74
2023-08-19T02:18:09.984Z,245.95
2023-08-19T02:19:09.980Z,244.82
2023-08-19T02:20:09.996Z,243.81
2023-08-19T02:21:10.012Z,239.87
2023-08-19T02:22:10.058Z,234.77
2023-08-19T02:23:10.091Z,233.95
2023-08-19T02:24:10.100Z,225.97
2023-08-19T02:25:10.163Z,220.65
2023-08-19T02:26:10.170Z,220.95
2023-08-19T02:27:10.183Z,219.09
2023-08-19T02:28:10.207Z,216.26
2023-08-19T02:29:10.265Z,209.34
2023-08-19T02:30:10.257Z,206.32
2023-08-19T02:31:10.336Z,206.47
2023-08-19T02:32:10.336Z,206.86
2023-08-19T02:33:10.375Z,202.84
2023-08-19T02:34:10.367Z,201.10
2023-08-19T02:35:10.375Z,202.94
2023-08-19T02:36:10.408Z,204.18
2023-08-19T02:37:10.458Z,205.58
2023-08-19T02:38:10.489Z,206.56
2023-08-19T02:39:10.533Z,208.88
2023-08-19T02:40:10.579Z,210.43
2023-08-19T02:41:10.614Z,208.32
2023-08-19T02:42:10.677Z,208.72
2023-08-19T02:43:10.688Z,208.72
2023-08-19T02:44:10.735Z,209.45
2023-08-19T02:45:10.779Z,210.29
2023-08-19T02:46:10.868Z,210.81
2023-08-19T02:47:10.919Z,211.11
2023-08-19T02:48:11.018Z,213.38
2023-08-19T02:49:11.002Z,214.43
2023-08-19T02:50:11.065Z,212.42
2023-08-19T02:51:11.093Z,213.45
2023-08-19T02:52:11.156Z,214.69
2023-08-19T02:53:11.199Z,216.46
2023-08-19T02:54:11.255Z,225.24
2023-08-19T02:55:11.268Z,232.25
2023-08-19T02:56:11.300Z,237.44
2023-08-19T02:57:11.341Z,241.66
2023-08-19T02:58:11.400Z,246.78
2023-08-19T02:59:11.477Z,250.04
2023-08-19T03:00:11.482Z,250.00
2023-08-19T03:01:11.588Z,249.69
2023-08-19T03:02:11.668Z,250.16
2023-08-19T03:03:11.780Z,250.14
2023-08-19T03:04:11.723Z,250.00
2023-08-19T03:05:11.762Z,249.62
2023-08-19T03:06:11.816Z,250.29
2023-08-19T03:07:11.876Z,250.00
2023-08-19T03:08:11.911Z,249.65
2023-08-19T03:09:11.975Z,248.04
2023-08-19T03:10:12.005Z,246.75
2023-08-19T03:11:12.069Z,245.69
2023-08-19T03:12:12.079Z,246.16
2023-08-19T03:13:12.153Z,246.11
2023-08-19T03:14:12.187Z,248.36
2023-08-19T03:15:12.237Z,249.62
2023-08-19T03:16:12.315Z,249.50
2023-08-19T03:17:12.329Z,246.94
2023-08-19T03:18:12.394Z,232.40
2023-08-19T03:19:12.463Z,222.67
2023-08-19T03:20:12.475Z,223.65
2023-08-19T03:21:12.502Z,222.82
2023-08-19T03:22:12.597Z,220.85
2023-08-19T03:23:12.575Z,214.57
2023-08-19T03:24:12.647Z,211.86
2023-08-19T03:25:12.657Z,211.05
2023-08-19T03:26:12.683Z,208.34
2023-08-19T03:27:12.724Z,210.12
2023-08-19T03:28:12.782Z,212.91
2023-08-19T03:29:12.834Z,213.69
2023-08-19T03:30:12.876Z,215.17
2023-08-19T03:31:12.937Z,219.46
2023-08-19T03:32:12.968Z,221.23
2023-08-19T03:33:13.067Z,223.66
2023-08-19T03:34:13.143Z,223.88
2023-08-19T03:35:13.126Z,216.75
2023-08-19T03:36:13.179Z,211.07
2023-08-19T03:37:13.261Z,207.16
2023-08-19T03:38:13.299Z,207.20
2023-08-19T03:39:13.368Z,208.97
2023-08-19T03:40:13.425Z,205.54
2023-08-19T03:41:13.445Z,198.78
2023-08-19T03:42:13.465Z,194.03
2023-08-19T03:43:13.539Z,193.34
2023-08-19T03:44:13.591Z,195.44
2023-08-19T03:45:13.640Z,198.29
2023-08-19T03:46:13.723Z,200.28
2023-08-19T03:47:13.750Z,202.28
2023-08-19T03:48:13.845Z,203.65
2023-08-19T03:49:13.858Z,205.07
2023-08-19T03:50:13.916Z,207.82
2023-08-19T03:51:13.950Z,209.26
2023-08-19T03:52:14.011Z,208.39
2023-08-19T03:53:14.024Z,211.70
2023-08-19T03:54:14.067Z,212.15
2023-08-19T03:55:14.132Z,213.35
2023-08-19T03:56:14.175Z,212.18
2023-08-19T03:57:14.232Z,210.97
2023-08-19T03:58:14.295Z,207.41
2023-08-19T03:59:14.309Z,203.79
2023-08-19T04:00:14.359Z,204.62
2023-08-19T04:01:14.410Z,203.12
2023-08-19T04:02:14.451Z,200.96
2023-08-19T04:03:14.509Z,200.17
2023-08-19T04:04:14.584Z,199.58
2023-08-19T04:05:14.612Z,197.78
2023-08-19T04:06:14.661Z,196.75
2023-08-19T04:07:14.699Z,197.45
2023-08-19T04:08:14.733Z,198.57
2023-08-19T04:09:14.799Z,199.35
2023-08-19T04:10:14.846Z,197.52
2023-08-19T04:11:14.911Z,195.33
2023-08-19T04:12:14.969Z,197.32
2023-08-19T04:13:15.014Z,198.96
2023-08-19T04:14:15.076Z,199.82
2023-08-19T04:15:15.161Z,199.41
2023-08-19T04:16:15.215Z,199.42
2023-08-19T04:17:15.253Z,196.81
2023-08-19T04:18:15.357Z,194.05
2023-08-19T04:19:15.361Z,194.12
2023-08-19T04:20:15.405Z,195.50
2023-08-19T04:21:15.473Z,196.48
2023-08-19T04:22:15.505Z,196.37
2023-08-19T04:23:15.552Z,196.64
2023-08-19T04:24:15.612Z,197.27
2023-08-19T04:25:15.675Z,197.71
2023-08-19T04:26:15.742Z,199.37
2023-08-19T04:27:15.793Z,201.57
2023-08-19T04:28:15.853Z,205.91
2023-08-19T04:29:15.885Z,206.32
2023-08-19T04:30:15.975Z,208.23
2023-08-19T04:31:16.026Z,212.16
2023-08-19T04:32:16.023Z,217.05
2023-08-19T04:33:16.137Z,223.90
2023-08-19T04:34:16.096Z,228.54
2023-08-19T04:35:16.167Z,233.26
2023-08-19T04:36:16.198Z,237.99
2023-08-19T04:37:16.210Z,241.85
2023-08-19T04:38:16.277Z,243.87
2023-08-19T04:39:16.315Z,244.92
2023-08-19T04:40:16.374Z,244.58
2023-08-19T04:41:16.418Z,244.33
2023-08-19T04:42:16.462Z,243.18
2023-08-19T04:43:16.498Z,242.22
2023-08-19T04:44:16.559Z,242.83
2023-08-19T04:45:16.560Z,241.57
2023-08-19T04:46:16.645Z,240.66
2023-08-19T04:47:16.630Z,238.62
2023-08-19T04:48:16.678Z,238.17
2023-08-19T04:49:16.736Z,239.80
2023-08-19T04:50:16.774Z,238.87
2023-08-19T04:51:16.835Z,238.57
2023-08-19T04:52:16.860Z,237.54
2023-08-19T04:53:16.871Z,236.73
2023-08-19T04:54:16.993Z,235.36
2023-08-19T04:55:16.958Z,233.98
2023-08-19T04:57:17.032Z,228.68
2023-08-19T04:58:17.095Z,226.42
2023-08-19T04:59:17.132Z,224.52
2023-08-19T05:00:17.170Z,222.48
2023-08-19T05:01:17.260Z,223.68
2023-08-19T05:02:17.306Z,225.85
2023-08-19T05:03:17.336Z,227.74
2023-08-19T05:04:17.448Z,229.27
2023-08-19T05:05:17.413Z,230.14
2023-08-19T05:06:17.476Z,230.82
2023-08-19T05:07:17.479Z,232.90
2023-08-19T05:08:17.545Z,234.86
2023-08-19T05:09:17.586Z,236.72
2023-08-19T05:10:17.665Z,236.97
2023-08-19T05:11:17.702Z,237.46
2023-08-19T05:12:17.735Z,235.26
2023-08-19T05:13:17.801Z,236.36
2023-08-19T05:14:17.831Z,235.10
2023-08-19T05:15:17.885Z,233.44
2023-08-19T05:16:18.003Z,227.13
2023-08-19T05:17:17.981Z,223.33
2023-08-19T05:18:18.030Z,221.93
2023-08-19T05:19:18.042Z,219.08
2023-08-19T05:20:18.087Z,216.29
2023-08-19T05:21:18.117Z,214.42
2023-08-19T05:22:18.181Z,213.81
2023-08-19T05:23:18.188Z,211.43
2023-08-19T05:24:18.214Z,213.48
2023-08-19T05:25:18.300Z,211.53
2023-08-19T05:26:18.304Z,212.27
2023-08-19T05:27:18.272Z,213.06
2023-08-19T05:28:18.343Z,214.90
2023-08-19T05:29:18.319Z,216.58
2023-08-19T05:30:18.318Z,216.53
2023-08-19T05:31:18.420Z,219.81
2023-08-19T05:32:18.397Z,222.92
2023-08-19T05:33:18.460Z,223.67
2023-08-19T05:34:18.510Z,225.20
2023-08-19T05:35:18.563Z,225.50
2023-08-19T05:36:18.632Z,227.18
2023-08-19T05:37:18.658Z,227.91
2023-08-19T05:38:18.690Z,229.20
2023-08-19T05:39:18.737Z,230.96
2023-08-19T05:40:18.768Z,232.51
2023-08-19T05:41:18.816Z,232.95
2023-08-19T05:42:18.862Z,232.10
2023-08-19T05:43:18.877Z,231.32
2023-08-19T05:44:18.904Z,227.93
2023-08-19T05:45:18.951Z,226.28
2023-08-19T05:46:18.966Z,222.22
2023-08-19T05:47:18.986Z,221.52
2023-08-19T05:48:19.031Z,221.28
2023-08-19T05:49:19.058Z,220.79
2023-08-19T05:50:19.060Z,219.10
2023-08-19T05:51:19.083Z,219.95
2023-08-19T05:52:19.094Z,218.62
2023-08-19T05:53:19.118Z,214.55
2023-08-19T05:54:19.165Z,209.98
2023-08-19T05:55:19.205Z,207.30
2023-08-19T05:56:19.275Z,206.85
2023-08-19T05:57:19.342Z,206.84
2023-08-19T05:58:19.373Z,208.00
2023-08-19T05:59:19.417Z,210.61
2023-08-19T06:00:19.446Z,211.46
2023-08-19T06:01:20.147Z,212.84
2023-08-19T06:02:19.479Z,216.83
2023-08-19T06:03:19.560Z,219.84
2023-08-19T06:04:19.475Z,220.81
2023-08-19T06:05:19.497Z,219.88
2023-08-19T06:06:19.522Z,219.57
2023-08-19T06:07:19.558Z,221.18
2023-08-19T06:08:19.603Z,225.39
2023-08-19T06:09:19.676Z,225.32
2023-08-19T06:10:19.737Z,224.60
2023-08-19T06:11:19.849Z,222.84
2023-08-19T06:12:19.884Z,222.52
2023-08-19T06:13:19.905Z,221.75
2023-08-19T06:14:19.948Z,223.80
2023-08-19T06:15:19.961Z,225.41
2023-08-19T06:16:19.957Z,222.09
2023-08-19T06:17:20.065Z,221.99
2023-08-19T06:18:20.110Z,223.44
2023-08-19T06:19:20.112Z,224.47
2023-08-19T06:20:20.136Z,222.16
2023-08-19T06:21:20.147Z,217.00
2023-08-19T06:22:20.175Z,214.73
2023-08-19T06:23:20.217Z,216.76
2023-08-19T06:24:20.236Z,212.73
2023-08-19T06:25:20.335Z,208.47
2023-08-19T06:26:20.324Z,207.27
2023-08-19T06:27:20.373Z,206.18
2023-08-19T06:28:20.386Z,204.56
2023-08-19T06:29:20.398Z,204.45
2023-08-19T06:30:20.442Z,203.11
2023-08-19T06:31:21.753Z,202.80
2023-08-19T06:32:20.582Z,197.45
2023-08-19T06:33:20.581Z,192.58
2023-08-19T06:34:20.633Z,185.81
2023-08-19T06:35:20.675Z,176.57
2023-08-19T06:36:20.714Z,170.38
2023-08-19T06:37:20.753Z,163.02
2023-08-19T06:38:20.773Z,159.47
2023-08-19T06:39:20.807Z,152.66
2023-08-19T06:40:20.868Z,147.57
2023-08-19T06:41:20.865Z,143.47
2023-08-19T06:42:20.875Z,143.45
2023-08-19T06:43:20.901Z,140.63
2023-08-19T06:44:20.927Z,137.17
2023-08-19T06:45:20.939Z,135.30
2023-08-19T06:46:20.972Z,132.77
2023-08-19T06:47:20.949Z,133.01
2023-08-19T06:48:20.991Z,129.19
2023-08-19T06:49:20.996Z,126.61
2023-08-19T06:50:21.021Z,125.93
2023-08-19T06:51:21.069Z,126.46
2023-08-19T06:52:21.093Z,126.62
2023-08-19T06:53:21.111Z,127.01
2023-08-19T06:54:21.126Z,126.20
2023-08-19T06:55:21.145Z,122.11
2023-08-19T06:56:21.173Z,118.98
2023-08-19T06:57:21.202Z,120.22
2023-08-19T06:58:21.255Z,121.63
2023-08-19T06:59:21.285Z,122.40
2023-08-19T07:00:21.287Z,125.88
2023-08-19T07:01:21.367Z,126.03
2023-08-19T07:02:21.392Z,122.39
2023-08-19T07:03:21.411Z,121.61
2023-08-19T07:04:21.369Z,120.27
2023-08-19T07:05:21.379Z,121.40
2023-08-19T07:06:21.392Z,121.21
2023-08-19T07:07:21.416Z,118.85
2023-08-19T07:08:21.409Z,116.56
2023-08-19T07:09:21.453Z,117.26
2023-08-19T07:10:21.468Z,116.09
2023-08-19T07:11:21.501Z,113.51
2023-08-19T07:12:21.500Z,115.15
2023-08-19T07:13:21.553Z,116.44
2023-08-19T07:14:21.574Z,116.38
2023-08-19T07:15:21.649Z,114.48
2023-08-19T07:16:21.725Z,114.37
2023-08-19T07:17:21.758Z,109.79
2023-08-19T07:18:21.914Z,110.92
2023-08-19T07:19:21.849Z,108.88
2023-08-19T07:20:21.897Z,110.41
2023-08-19T07:21:21.894Z,114.20
2023-08-19T07:22:21.930Z,113.76
2023-08-19T07:23:21.974Z,110.25
2023-08-19T07:24:21.999Z,106.69
2023-08-19T07:25:22.052Z,107.49
2023-08-19T07:26:22.058Z,106.56
2023-08-19T07:27:22.077Z,108.93
2023-08-19T07:28:22.106Z,112.14
2023-08-19T07:29:22.110Z,112.29
2023-08-19T07:30:22.138Z,109.61
2023-08-19T07:31:22.123Z,112.55
2023-08-19T07:32:22.149Z,114.63
2023-08-19T07:33:22.157Z,117.03
2023-08-19T07:34:22.130Z,116.97
2023-08-19T07:35:22.162Z,116.54
2023-08-19T07:36:22.191Z,111.00
2023-08-19T07:37:22.217Z,110.51
2023-08-19T07:38:22.268Z,115.06
2023-08-19T07:39:22.306Z,111.20
2023-08-19T07:40:22.361Z,112.81
2023-08-19T07:41:22.413Z,109.46
2023-08-19T07:42:22.458Z,104.46
2023-08-19T07:43:22.515Z,100.37
2023-08-19T07:44:22.546Z,86.51
2023-08-19T07:45:22.606Z,82.60
2023-08-19T07:46:22.646Z,76.83
2023-08-19T07:47:22.660Z,70.58
2023-08-19T07:48:22.758Z,67.45
2023-08-19T07:49:22.726Z,69.77
2023-08-19T07:50:22.748Z,69.67
2023-08-19T07:51:22.778Z,65.18
2023-08-19T07:52:22.794Z,70.16
2023-08-19T07:53:22.826Z,74.60
2023-08-19T07:54:22.867Z,79.61
2023-08-19T07:55:22.898Z,80.53
2023-08-19T07:56:22.909Z,78.83
2023-08-19T07:57:22.929Z,81.21
2023-08-19T07:58:22.974Z,85.10
2023-08-19T07:59:23.009Z,80.17
2023-08-19T08:00:23.021Z,74.57
2023-08-19T08:01:23.044Z,70.07
2023-08-19T08:02:23.806Z,67.28
2023-08-19T08:03:23.137Z,69.88
2023-08-19T08:04:23.102Z,63.73
2023-08-19T08:05:23.283Z,58.07
2023-08-19T08:06:23.095Z,56.01
2023-08-19T08:07:23.106Z,51.57
2023-08-19T08:08:23.148Z,47.50
2023-08-19T08:09:23.198Z,43.60
2023-08-19T08:10:23.256Z,43.50
2023-08-19T08:11:23.314Z,39.67
2023-08-19T08:12:23.378Z,36.68
2023-08-19T08:13:23.412Z,36.47
2023-08-19T08:14:23.491Z,39.76
2023-08-19T08:15:23.521Z,44.11
2023-08-19T08:16:23.625Z,45.64
2023-08-19T08:17:23.616Z,46.11
2023-08-19T08:18:23.694Z,49.77
2023-08-19T08:19:23.718Z,48.33
2023-08-19T08:20:23.748Z,46.64
2023-08-19T08:21:23.794Z,46.86
2023-08-19T08:22:23.815Z,48.27
2023-08-19T08:23:23.853Z,44.59
2023-08-19T08:24:23.888Z,41.16
2023-08-19T08:25:23.927Z,40.74
2023-08-19T08:26:23.957Z,42.40
2023-08-19T08:27:23.994Z,38.09
2023-08-19T08:28:24.019Z,33.83
2023-08-19T08:29:24.044Z,33.28
2023-08-19T08:30:24.089Z,27.00
2023-08-19T08:31:24.130Z,24.61
2023-08-19T08:32:24.245Z,26.39
2023-08-19T08:33:24.159Z,24.06
2023-08-19T08:34:24.196Z,25.63
2023-08-19T08:35:24.193Z,27.49
2023-08-19T08:36:24.235Z,28.35
2023-08-19T08:37:24.233Z,21.77
2023-08-19T08:38:24.257Z,21.60
2023-08-19T08:39:24.267Z,25.03
2023-08-19T08:40:24.795Z,28.57
2023-08-19T08:41:24.311Z,30.42
2023-08-19T08:42:24.311Z,29.70
2023-08-19T08:43:24.318Z,27.45
2023-08-19T08:44:24.348Z,20.14
2023-08-19T08:45:24.404Z,20.55
2023-08-19T08:46:24.384Z,24.81
2023-08-19T08:47:24.473Z,27.36
2023-08-19T08:48:24.409Z,34.81
2023-08-19T08:49:24.483Z,34.85
2023-08-19T08:50:24.420Z,24.60
2023-08-19T08:51:24.458Z,22.06
2023-08-19T08:52:24.466Z,19.87
2023-08-19T08:53:24.465Z,23.44
2023-08-19T08:54:24.516Z,24.35
2023-08-19T08:55:24.486Z,24.73
2023-08-19T08:56:24.496Z,28.64
2023-08-19T08:57:24.537Z,39.27
2023-08-19T08:58:24.554Z,37.64
2023-08-19T08:59:24.560Z,32.76
2023-08-19T09:00:24.569Z,27.98
2023-08-19T09:01:24.702Z,26.62
2023-08-19T09:02:24.620Z,24.70
2023-08-19T09:03:24.677Z,25.47
2023-08-19T09:04:24.782Z,27.85
2023-08-19T09:05:24.820Z,32.97
2023-08-19T09:06:27.374Z,23.07
2023-08-19T09:07:24.808Z,24.92
2023-08-19T09:08:24.802Z,20.73
2023-08-19T09:09:24.787Z,27.01
2023-08-19T09:10:24.795Z,26.01
2023-08-19T09:11:24.788Z,16.94
2023-08-19T09:12:24.772Z,20.66
2023-08-19T09:13:24.772Z,29.76
2023-08-19T09:14:24.764Z,36.01
2023-08-19T09:15:24.773Z,26.19
2023-08-19T09:16:24.761Z,22.45
2023-08-19T09:17:24.746Z,25.57
2023-08-19T09:18:24.744Z,28.48
2023-08-19T09:19:24.743Z,30.73
2023-08-19T09:20:24.731Z,33.48
2023-08-19T09:21:24.728Z,29.30
2023-08-19T09:22:24.723Z,31.74
2023-08-19T09:23:24.711Z,26.39
2023-08-19T09:24:24.709Z,24.52
2023-08-19T09:25:24.712Z,30.60
2023-08-19T09:26:24.696Z,27.52
2023-08-19T09:27:24.688Z,28.20
2023-08-19T09:28:24.677Z,29.18
2023-08-19T09:29:24.676Z,23.79
2023-08-19T09:30:24.663Z,23.91
2023-08-19T09:31:24.694Z,25.20
2023-08-19T09:32:24.648Z,28.23
2023-08-19T09:33:24.641Z,36.53
2023-08-19T09:34:24.633Z,27.56
2023-08-19T09:35:24.629Z,27.31
2023-08-19T09:36:24.636Z,29.72
2023-08-19T09:37:24.621Z,26.25
2023-08-19T09:38:24.622Z,28.33
2023-08-19T09:39:24.606Z,23.79
2023-08-19T09:40:24.600Z,22.73
2023-08-19T09:41:24.625Z,19.66
2023-08-19T09:42:24.586Z,24.09
2023-08-19T09:43:24.584Z,24.12
2023-08-19T09:44:24.589Z,24.85
2023-08-19T09:45:24.679Z,25.02
2023-08-19T09:46:24.586Z,24.53
2023-08-19T09:47:24.546Z,25.00
2023-08-19T09:48:24.547Z,23.20
2023-08-19T09:49:24.548Z,28.17
2023-08-19T09:50:24.554Z,26.44
2023-08-19T09:51:24.598Z,27.58
2023-08-19T09:52:24.516Z,28.11
2023-08-19T09:53:24.552Z,25.16
2023-08-19T09:54:24.507Z,25.86
2023-08-19T09:55:24.495Z,27.64
2023-08-19T09:56:24.496Z,27.94
2023-08-19T09:57:24.493Z,30.34
2023-08-19T09:58:24.477Z,35.76
2023-08-19T09:59:24.472Z,32.22
2023-08-19T10:00:24.498Z,42.50
2023-08-19T10:01:24.540Z,45.73
2023-08-19T10:02:24.447Z,32.90
2023-08-19T10:03:24.486Z,28.13
2023-08-19T10:04:24.476Z,25.26
2023-08-19T10:05:24.470Z,26.73
2023-08-19T10:06:24.447Z,27.95
2023-08-19T10:07:24.428Z,24.88
2023-08-19T10:08:24.452Z,25.02
2023-08-19T10:09:24.411Z,26.59
2023-08-19T10:10:24.409Z,25.71
2023-08-19T10:11:24.403Z,25.71
2023-08-19T10:12:24.390Z,31.15
2023-08-19T10:13:24.384Z,29.39
2023-08-19T10:14:24.404Z,24.22
2023-08-19T10:15:24.382Z,28.34
2023-08-19T10:16:24.411Z,27.89
2023-08-19T10:17:24.441Z,27.24
2023-08-19T10:18:24.361Z,30.68
2023-08-19T10:19:24.416Z,36.72
2023-08-19T10:20:24.492Z,36.71
2023-08-19T10:21:24.543Z,26.91
2023-08-19T10:22:24.589Z,21.44
2023-08-19T10:23:24.660Z,22.27
2023-08-19T10:24:24.644Z,25.24
2023-08-19T10:25:24.724Z,24.75
2023-08-19T10:26:24.744Z,23.42
2023-08-19T10:27:24.801Z,25.10
2023-08-19T10:28:24.832Z,27.13
2023-08-19T10:29:24.859Z,26.38
2023-08-19T10:30:24.901Z,22.07
2023-08-19T10:31:24.934Z,17.42
2023-08-19T10:32:24.959Z,15.63
2023-08-19T10:33:25.028Z,17.48
2023-08-19T10:34:25.058Z,20.91
2023-08-19T10:35:25.101Z,25.74
2023-08-19T10:36:25.134Z,28.73
2023-08-19T10:37:25.158Z,34.84
2023-08-19T10:38:25.176Z,34.70
2023-08-19T10:39:25.199Z,36.82
2023-08-19T10:40:25.217Z,35.63
2023-08-19T10:41:25.220Z,33.33
2023-08-19T10:42:25.224Z,31.59
2023-08-19T10:43:25.218Z,30.58
2023-08-19T10:44:25.230Z,34.14
2023-08-19T10:45:25.229Z,38.66
2023-08-19T10:46:25.293Z,45.94
2023-08-19T10:47:25.354Z,48.47
2023-08-19T10:48:25.301Z,48.70
2023-08-19T10:49:25.340Z,48.08
2023-08-19T10:50:25.371Z,48.07
2023-08-19T10:51:25.447Z,52.99
2023-08-19T10:52:25.411Z,59.13
2023-08-19T10:53:25.406Z,60.51
2023-08-19T10:54:25.427Z,64.30
2023-08-19T10:55:25.454Z,63.97
2023-08-19T10:56:25.510Z,59.10
2023-08-19T10:57:25.623Z,58.60
2023-08-19T10:58:25.562Z,51.00
2023-08-19T10:59:25.594Z,50.63
2023-08-19T11:00:25.602Z,55.95
2023-08-19T11:01:25.669Z,59.08
2023-08-19T11:02:25.664Z,62.50
2023-08-19T11:03:25.670Z,53.42
2023-08-19T11:04:25.740Z,51.39
2023-08-19T11:05:25.736Z,56.03
2023-08-19T11:06:25.777Z,59.95
2023-08-19T11:07:25.825Z,61.72
2023-08-19T11:08:25.885Z,54.98
2023-08-19T11:09:25.905Z,50.96
2023-08-19T11:10:25.918Z,51.73
2023-08-19T11:11:25.940Z,55.55
2023-08-19T11:12:26.400Z,54.11
2023-08-19T11:13:26.038Z,53.63
2023-08-19T11:14:26.094Z,49.89
2023-08-19T11:15:26.134Z,46.42
2023-08-19T11:16:26.209Z,46.99
2023-08-19T11:17:26.247Z,49.96
2023-08-19T11:18:26.321Z,51.49
2023-08-19T11:19:26.310Z,56.19
2023-08-19T11:20:26.356Z,52.76
2023-08-19T11:21:26.346Z,51.23
2023-08-19T11:22:26.409Z,54.61
2023-08-19T11:23:26.387Z,56.68
2023-08-19T11:24:26.419Z,61.51
2023-08-19T11:25:26.428Z,72.47
2023-08-19T11:26:26.484Z,76.88
2023-08-19T11:27:26.588Z,74.92
2023-08-19T11:28:26.639Z,74.23
2023-08-19T11:29:26.642Z,67.68
2023-08-19T11:30:26.632Z,69.48
2023-08-19T11:31:26.722Z,65.98
2023-08-19T11:32:26.685Z,64.34
2023-08-19T11:33:26.721Z,62.29
2023-08-19T11:34:26.711Z,65.50
2023-08-19T11:35:26.777Z,61.08
2023-08-19T11:36:26.826Z,63.43
2023-08-19T11:37:26.879Z,61.56
2023-08-19T11:38:26.935Z,59.78
2023-08-19T11:39:26.990Z,59.31
2023-08-19T11:40:29.906Z,60.51
2023-08-19T11:41:27.030Z,61.00
2023-08-19T11:42:27.028Z,60.46
2023-08-19T11:43:27.028Z,65.40
2023-08-19T11:44:27.023Z,62.04
2023-08-19T11:45:27.003Z,63.25
2023-08-19T11:46:26.999Z,63.51
2023-08-19T11:47:27.054Z,72.46
2023-08-19T11:48:27.008Z,74.85
2023-08-19T11:49:26.973Z,72.22
2023-08-19T11:50:26.972Z,67.81
2023-08-19T11:51:26.975Z,66.68
2023-08-19T11:52:26.961Z,58.90
2023-08-19T11:53:26.975Z,59.23
2023-08-19T11:54:26.945Z,61.97
2023-08-19T11:55:26.941Z,63.50
2023-08-19T11:56:26.956Z,61.10
2023-08-19T11:57:26.946Z,62.62
2023-08-19T11:58:26.933Z,63.22
2023-08-19T11:59:26.919Z,59.25
2023-08-19T12:00:26.923Z,56.19
2023-08-19T12:01:26.989Z,57.47
2023-08-19T12:02:26.907Z,61.07
2023-08-19T12:03:27.000Z,63.54
2023-08-19T12:04:26.894Z,57.89
2023-08-19T12:05:26.883Z,52.93
2023-08-19T12:06:26.870Z,50.05
2023-08-19T12:07:26.879Z,46.69
2023-08-19T12:08:26.873Z,49.22
2023-08-19T12:09:26.861Z,50.71
2023-08-19T12:10:26.849Z,49.64
2023-08-19T12:11:26.936Z,47.44
2023-08-19T12:12:26.849Z,48.21
2023-08-19T12:13:26.843Z,56.80
2023-08-19T12:14:26.838Z,63.36
2023-08-19T12:15:26.833Z,65.48
2023-08-19T12:16:26.828Z,55.21
2023-08-19T12:17:26.816Z,56.64
2023-08-19T12:18:26.833Z,58.42
2023-08-19T12:19:26.793Z,57.16
2023-08-19T12:20:26.780Z,55.62
2023-08-19T12:21:26.782Z,59.78
2023-08-19T12:22:26.809Z,65.38
2023-08-19T12:23:26.762Z,71.23
2023-08-19T12:24:26.757Z,66.68
2023-08-19T12:25:26.752Z,63.53
2023-08-19T12:26:26.754Z,64.18
2023-08-19T12:27:26.765Z,58.69
2023-08-19T12:28:26.794Z,54.17
2023-08-19T12:29:26.727Z,52.31
2023-08-19T12:30:26.730Z,51.64
2023-08-19T12:31:26.758Z,52.74
2023-08-19T12:32:26.732Z,47.21
2023-08-19T12:33:26.699Z,47.50
2023-08-19T12:34:26.698Z,48.58
2023-08-19T12:35:26.693Z,50.65
2023-08-19T12:36:26.697Z,51.83
2023-08-19T12:37:26.686Z,53.73
2023-08-19T12:38:26.681Z,49.90